Data for 03/14/2013

Time Sea-Level Adjusted Pressure Absolute Pressure Temperature Relative Humidity Dew Point   
(mb) (inHg) (mb) (inHg) (C) (F) (%) (C) (F)
00:05 1023 30.21 852 25.16 6.3 43.3 49 -3.7 25.3
00:10 1023 30.21 852 25.16 6.1 43 49 -3.7 25.3
00:15 1023 30.21 852 25.16 6 42.8 49 -3.8 25.1
00:20 1023 30.21 852 25.16 6.1 43 49 -3.9 24.9
00:25 1023 30.21 852 25.16 6.1 43 48 -4 24.8
00:30 1023 30.21 852 25.16 6.3 43.3 48 -3.8 25.1
00:35 1023 30.21 852 25.16 6.2 43.1 49 -3.7 25.3
00:40 1023 30.21 852 25.16 6.4 43.5 48 -3.9 25
00:45 1023 30.21 852 25.16 6.3 43.3 48 -3.8 25.1
00:50 1023 30.21 852 25.16 6 42.9 49 -3.8 25.1
00:55 1023 30.21 852 25.16 5.9 42.5 50 -3.9 25
01:00 1023 30.21 852 25.16 5.7 42.3 50 -3.8 25.2
01:05 1023 30.21 852 25.16 5.6 42 51 -3.7 25.4
01:10 1023 30.21 852 25.16 5.7 42.2 52 -3.5 25.8
01:15 1023 30.21 852 25.16 5.7 42.3 51 -3.6 25.5
01:20 1023 30.21 852 25.16 5.6 42.1 50 -3.9 25
01:25 1023 30.21 852 25.16 5.5 42 53 -3.4 25.9
01:30 1023 30.21 852 25.16 5.4 41.7 52 -3.6 25.5
01:35 1023 30.21 852 25.16 5.4 41.7 51 -3.9 25
01:40 1023 30.21 852 25.16 5.5 41.9 51 -3.9 25
01:45 1023 30.21 852 25.16 5.8 42.5 49 -4.2 24.5
01:50 1023 30.21 852 25.16 5.9 42.6 51 -3.4 25.9
01:55 1023 30.21 852 25.16 5.2 41.4 53 -3.7 25.4
02:00 1023 30.21 852 25.16 5.6 42 50 -4.1 24.6
02:05 1023 30.21 852 25.16 5.9 42.7 49 -3.9 24.9
02:10 1023 30.21 852 25.16 5.4 41.7 53 -3.5 25.8
02:15 1023 30.21 852 25.16 4.4 39.8 56 -3.6 25.6
02:20 1023 30.21 852 25.16 4.6 40.2 51 -4.7 23.5
02:25 1023 30.21 852 25.16 5.4 41.8 48 -4.8 23.4
02:30 1023 30.21 852 25.16 6 42.7 47 -4.5 23.9
02:35 1023 30.21 852 25.16 6.5 43.6 47 -4 24.7
02:40 1023 30.21 852 25.16 5.5 41.9 52 -3.6 25.5
02:45 1023 30.21 852 25.16 4.8 40.6 53 -3.9 25
02:50 1023 30.21 852 25.16 4.8 40.6 53 -4 24.8
02:55 1023 30.21 852 25.16 4.7 40.4 54 -3.9 24.9
03:00 1023 30.21 852 25.16 4.6 40.2 53 -4.2 24.4
03:05 1023 30.21 852 25.16 4.9 40.9 52 -4.1 24.5
03:10 1023 30.21 852 25.16 5 41.1 51 -4.2 24.5
03:15 1023 30.21 852 25.16 5.1 41.2 51 -4.1 24.6
03:20 1023 30.21 852 25.16 5 41 51 -4.2 24.4
03:25 1023 30.21 852 25.16 5.1 41.1 52 -4.1 24.7
03:30 1023 30.21 852 25.16 4.8 40.6 53 -4 24.8
03:35 1023 30.21 852 25.16 4.7 40.4 52 -4.3 24.3
03:40 1023 30.21 852 25.16 5 41 52 -4.1 24.6
03:45 1023 30.21 852 25.16 5.2 41.4 51 -4.2 24.4
03:50 1023 30.21 852 25.16 5.2 41.3 52 -3.9 25
03:55 1023 30.21 852 25.16 4.7 40.5 54 -3.8 25.2
04:00 1022 30.18 852 25.16 4.4 39.9 54 -4.1 24.5
04:05 1022 30.18 852 25.16 4.6 40.2 53 -4.1 24.7
04:10 1022 30.18 852 25.16 4.5 40.1 54 -3.9 25
04:15 1022 30.18 852 25.16 4.5 40 53 -4.4 24.2
04:20 1022 30.18 852 25.16 4.9 40.8 54 -3.6 25.5
04:25 1022 30.18 852 25.16 3.7 38.7 60 -3.4 25.9
04:30 1022 30.18 852 25.16 3.8 38.9 53 -4.8 23.3
04:35 1022 30.18 852 25.16 5.1 41.2 51 -4.2 24.5
04:40 1022 30.18 852 25.16 5.1 41.1 52 -4 24.8
04:45 1023 30.21 852 25.16 5 41 50 -4.5 24
04:50 1023 30.21 852 25.16 5.1 41.2 50 -4.5 23.8
04:55 1023 30.21 852 25.16 5.1 41.3 51 -4 24.7
05:00 1023 30.21 852 25.16 4.9 40.8 52 -4.2 24.4
05:05 1023 30.21 852 25.16 5.1 41.1 51 -4.3 24.3
05:10 1023 30.21 852 25.16 5.2 41.4 50 -4.4 24.1
05:15 1023 30.21 852 25.16 5.3 41.6 50 -4.2 24.4
05:20 1023 30.21 852 25.16 5.4 41.7 49 -4.4 24.1
05:25 1023 30.21 852 25.16 5.4 41.8 50 -4.3 24.3
05:30 1023 30.21 852 25.16 5.3 41.5 50 -4.2 24.4
05:35 1023 30.21 852 25.16 5.2 41.4 50 -4.3 24.2
05:40 1023 30.21 852 25.16 5.3 41.5 50 -4.3 24.3
05:45 1023 30.21 852 25.16 5.2 41.4 50 -4.2 24.4
05:50 1023 30.21 853 25.19 5.2 41.3 50 -4.3 24.2
05:55 1023 30.21 853 25.19 5.1 41.3 51 -4.3 24.3
06:00 1023 30.21 853 25.19 5 41.1 51 -4.3 24.3
06:05 1023 30.21 853 25.19 5.1 41.2 51 -4.2 24.5
06:10 1023 30.21 853 25.19 5.1 41.1 51 -4.2 24.4
06:15 1023 30.21 852 25.16 5.1 41.1 50 -4.4 24.1
06:20 1023 30.21 852 25.16 5.2 41.3 51 -4.2 24.4
06:25 1023 30.21 852 25.16 5 41.1 51 -4.2 24.4
06:30 1023 30.21 852 25.16 4.7 40.5 52 -4.2 24.4
06:35 1023 30.21 852 25.16 4.9 40.8 51 -4.3 24.3
06:40 1023 30.21 852 25.16 5.2 41.3 50 -4.5 24
06:45 1023 30.21 852 25.16 5.4 41.8 50 -4.2 24.4
06:50 1023 30.21 852 25.16 5.5 41.8 49 -4.4 24.2
06:55 1023 30.21 852 25.16 5.4 41.8 50 -4 24.7
07:00 1023 30.21 852 25.16 4.8 40.6 52 -4.2 24.5
07:05 1023 30.21 852 25.16 4.4 39.9 57 -3.5 25.8
07:10 1023 30.21 852 25.16 3.7 38.7 57 -4.1 24.7
07:15 1023 30.21 852 25.16 4.6 40.3 52 -4.4 24
07:20 1023 30.21 852 25.16 5.3 41.6 51 -4 24.8
07:25 1023 30.21 852 25.16 5.4 41.8 52 -3.7 25.3
07:30 1023 30.21 852 25.16 5.4 41.7 51 -3.8 25.1
07:35 1023 30.21 852 25.16 5.5 41.9 50 -4 24.8
07:40 1023 30.21 852 25.16 5.6 42.1 51 -3.6 25.4
07:45 1023 30.21 852 25.16 5.5 41.9 53 -3.3 26
07:50 1023 30.21 852 25.16 5.3 41.5 52 -3.7 25.3
07:55 1023 30.21 852 25.16 5.4 41.6 52 -3.8 25.2
08:00 1023 30.21 852 25.16 5.4 41.6 53 -3.3 26
08:05 1023 30.21 852 25.16 5.1 41.2 55 -3.3 26.1
08:10 1023 30.21 852 25.16 5.4 41.7 53 -3.5 25.7
08:15 1023 30.21 852 25.16 5.8 42.4 50 -3.8 25.2
08:20 1023 30.21 852 25.16 6.3 43.3 47 -4.2 24.5
08:25 1023 30.21 852 25.16 6.7 44 47 -3.8 25.1
08:30 1023 30.21 852 25.16 6.6 43.9 48 -3.7 25.3
08:35 1023 30.21 852 25.16 6.6 43.9 50 -3 26.6
08:40 1023 30.21 852 25.16 6.8 44.2 50 -3 26.6
08:45 1023 30.21 852 25.16 6.8 44.3 48 -3.4 26
08:50 1023 30.21 852 25.16 7.2 44.9 47 -3.4 25.8
08:55 1023 30.21 852 25.16 7.9 46.2 44 -3.6 25.4
09:00 1023 30.21 852 25.16 8.4 47.1 42 -3.8 25.1
09:05 1023 30.21 852 25.16 9 48.1 40 -3.8 25.1
09:10 1023 30.21 852 25.16 10 49.9 37 -3.9 25
09:15 1023 30.21 853 25.19 10.4 50.8 36 -3.8 25.1
09:20 1023 30.21 853 25.19 10.6 51.1 37 -3.6 25.6
09:25 1023 30.21 853 25.19 10.5 50.9 36 -3.8 25.2
09:30 1023 30.21 853 25.19 10.4 50.8 35 -4.2 24.4
09:35 1023 30.21 853 25.19 10.3 50.5 36 -4.1 24.7
09:40 1023 30.21 852 25.16 10.9 51.6 35 -4 24.8
09:45 1023 30.21 852 25.16 11 51.9 35 -3.8 25.2
09:50 1023 30.21 852 25.16 11 51.8 35 -3.7 25.4
09:55 1023 30.21 852 25.16 11.3 52.3 34 -4 24.8
10:00 1023 30.21 852 25.16 11.5 52.6 34 -3.9 24.9
10:05 1023 30.21 852 25.16 11.1 52 34 -4.1 24.6
10:10 1023 30.21 852 25.16 11.6 52.8 32 -4.4 24.2
10:15 1023 30.21 852 25.16 12.5 54.5 31 -4 24.8
10:20 1023 30.21 852 25.16 13.5 56.2 30 -3.9 25
10:25 1023 30.21 852 25.16 13.1 55.5 31 -3.6 25.6
10:30 1023 30.21 852 25.16 12.6 54.7 31 -3.8 25.1
10:35 1023 30.21 852 25.16 12.3 54.2 32 -4 24.7
10:40 1023 30.21 852 25.16 12.8 55 30 -4.5 23.9
10:45 1023 30.21 852 25.16 13.5 56.3 29 -4.3 24.2
10:50 1023 30.21 852 25.16 14.1 57.3 28 -4.2 24.5
10:55 1023 30.21 852 25.16 14.2 57.5 28 -4.1 24.7
11:00 1023 30.21 852 25.16 14.2 57.5 28 -4.1 24.6
11:05 1023 30.21 852 25.16 14 57.2 28 -4.1 24.7
11:10 1023 30.21 852 25.16 14.5 58.1 28 -3.9 25.1
11:15 1023 30.21 852 25.16 14.5 58.2 28 -3.9 25
11:20 1023 30.21 852 25.16 14.6 58.3 28 -3.8 25.2
11:25 1023 30.21 852 25.16 14.4 57.9 28 -3.9 24.9
11:30 1022 30.18 852 25.16 14.3 57.8 29 -3.5 25.7
11:35 1022 30.18 852 25.16 14.3 57.7 29 -3.4 26
11:40 1022 30.18 852 25.16 14.3 57.8 28 -3.9 24.9
11:45 1022 30.18 852 25.16 14.2 57.6 29 -3.4 25.8
11:50 1022 30.18 852 25.16 13.8 56.9 29 -3.9 24.9
11:55 1022 30.18 851 25.13 14.4 57.8 28 -3.9 25
12:00 1022 30.18 852 25.16 14 57.2 29 -3.5 25.7
12:05 1022 30.18 852 25.16 13.8 56.9 29 -4 24.8
12:10 1022 30.18 851 25.13 14.2 57.6 29 -3.7 25.4
12:15 1022 30.18 851 25.13 14.3 57.7 29 -3.5 25.7
12:20 1022 30.18 852 25.16 14 57.3 29 -3.5 25.8
12:25 1022 30.18 851 25.13 14.3 57.7 29 -3.6 25.4
12:30 1022 30.18 851 25.13 14.4 57.9 28 -3.6 25.5
12:35 1022 30.18 851 25.13 13.7 56.7 30 -3.5 25.7
12:40 1022 30.18 851 25.13 14 57.2 29 -3.6 25.5
12:45 1022 30.18 851 25.13 14.2 57.6 29 -3.3 26.1
12:50 1022 30.18 851 25.13 13.9 56.9 30 -3.2 26.3
12:55 1022 30.18 851 25.13 14.1 57.5 29 -3.6 25.6
13:00 1022 30.18 851 25.13 14.2 57.6 29 -3.3 26
13:05 1022 30.18 851 25.13 13.9 56.9 30 -3.3 26
13:10 1022 30.18 851 25.13 13.8 56.9 30 -3.6 25.5
13:15 1022 30.18 851 25.13 14.3 57.8 29 -3.3 26.1
13:20 1022 30.18 851 25.13 14 57.2 29 -3.6 25.5
13:25 1021 30.15 851 25.13 14.2 57.6 29 -3.5 25.7
13:30 1021 30.15 851 25.13 14.2 57.6 29 -3.4 25.9
13:35 1021 30.15 850 25.1 14.4 57.8 29 -3.5 25.7
13:40 1021 30.15 850 25.1 14.9 58.7 28 -3.5 25.7
13:45 1021 30.15 850 25.1 14.7 58.5 28 -3.5 25.8
13:50 1021 30.15 850 25.1 15.1 59.1 28 -3.1 26.4
13:55 1021 30.15 850 25.1 15.2 59.4 29 -2.8 26.9
14:00 1021 30.15 850 25.1 15.4 59.8 28 -2.9 26.8
14:05 1021 30.15 850 25.1 14.9 58.9 28 -3.3 26.1
14:10 1021 30.15 850 25.1 15.2 59.4 27 -3.6 25.6
14:15 1021 30.15 850 25.1 15.6 60 28 -2.9 26.8
14:20 1021 30.15 850 25.1 15.3 59.5 28 -3.2 26.2
14:25 1021 30.15 850 25.1 15.6 60.2 27 -3.3 26.1
14:30 1021 30.15 850 25.1 15.4 59.8 27 -3.4 25.9
14:35 1020 30.12 850 25.1 15.6 60.1 28 -2.9 26.9
14:40 1020 30.12 850 25.1 15.3 59.5 28 -3.2 26.3
14:45 1020 30.12 850 25.1 15.5 59.9 27 -3.1 26.4
14:50 1020 30.12 849 25.07 15.5 59.9 28 -2.8 27
14:55 1020 30.12 849 25.07 15.5 60 28 -3 26.7
15:00 1020 30.12 849 25.07 15.4 59.7 28 -2.7 27.1
15:05 1020 30.12 849 25.07 15.1 59.2 29 -2.9 26.7
15:10 1020 30.12 849 25.07 15.3 59.6 28 -3 26.7
15:15 1020 30.12 849 25.07 15.8 60.4 27 -3.3 26.1
15:20 1020 30.12 849 25.07 16 60.7 26 -3.2 26.2
15:25 1020 30.12 849 25.07 15.8 60.4 27 -3.2 26.2
15:30 1020 30.12 849 25.07 15.4 59.6 27 -3.2 26.2
15:35 1020 30.12 849 25.07 15.3 59.6 28 -2.9 26.8
15:40 1020 30.12 849 25.07 15 59 28 -3.1 26.5
15:45 1020 30.12 849 25.07 14.9 58.8 28 -3.1 26.4
15:50 1020 30.12 849 25.07 14.6 58.2 29 -3.4 25.9
15:55 1019 30.09 849 25.07 14.2 57.6 30 -3.1 26.4
16:00 1019 30.09 849 25.07 14.1 57.3 30 -3.3 26.1
16:05 1020 30.12 849 25.07 13.7 56.7 30 -3.3 26
16:10 1020 30.12 849 25.07 13.6 56.5 30 -3.4 25.9
16:15 1020 30.12 849 25.07 13.6 56.4 30 -3.4 25.9
16:20 1020 30.12 849 25.07 13.5 56.2 30 -3.5 25.7
16:25 1019 30.09 849 25.07 13.4 56.2 30 -3.6 25.5
16:30 1019 30.09 849 25.07 13.4 56.1 30 -3.8 25.1
16:35 1019 30.09 849 25.07 13.5 56.2 30 -3.7 25.3
16:40 1019 30.09 849 25.07 13.5 56.2 29 -4.1 24.5
16:45 1019 30.09 849 25.07 13.5 56.3 29 -4.1 24.6
16:50 1019 30.09 849 25.07 13.5 56.4 29 -4.1 24.6
16:55 1019 30.09 849 25.07 13.5 56.4 29 -3.9 25
17:00 1019 30.09 848 25.04 13.3 55.9 30 -3.8 25.1
17:05 1019 30.09 848 25.04 13 55.5 31 -3.7 25.3
17:10 1019 30.09 848 25.04 12.9 55.2 31 -3.8 25.1
17:15 1019 30.09 848 25.04 12.6 54.7 32 -3.8 25.2
17:20 1019 30.09 848 25.04 12.5 54.5 32 -3.8 25.1
17:25 1019 30.09 848 25.04 12.5 54.4 32 -3.9 25
17:30 1019 30.09 848 25.04 12.3 54.2 32 -3.8 25.2
17:35 1019 30.09 848 25.04 12.1 53.7 33 -3.6 25.6
17:40 1019 30.09 848 25.04 11.8 53.3 33 -3.7 25.3
17:45 1019 30.09 848 25.04 11.7 53 34 -3.8 25.2
17:50 1019 30.09 848 25.04 11.7 53.1 33 -4 24.8
17:55 1019 30.09 848 25.04 11.8 53.2 33 -3.8 25.1
18:00 1019 30.09 848 25.04 11.4 52.6 34 -3.9 24.9
18:05 1018 30.06 848 25.04 11.3 52.3 34 -4.1 24.7
18:10 1018 30.06 848 25.04 11.4 52.4 33 -4.3 24.3
18:15 1018 30.06 848 25.04 11.5 52.7 33 -4.3 24.2
18:20 1018 30.06 847 25.01 11.4 52.6 33 -4.2 24.4
18:25 1018 30.06 847 25.01 11.3 52.3 33 -4.2 24.5
18:30 1018 30.06 847 25.01 11.1 52 34 -4 24.9
18:35 1018 30.06 847 25.01 10.7 51.2 34 -4.7 23.6
18:40 1018 30.06 847 25.01 11 51.8 32 -5 22.9
18:45 1018 30.06 847 25.01 11.6 52.8 30 -5.4 22.2
18:50 1018 30.06 847 25.01 11.7 53.1 31 -4.9 23.3
18:55 1018 30.06 847 25.01 11.2 52.2 34 -4.1 24.6
19:00 1018 30.06 847 25.01 10.9 51.6 32 -5.1 22.7
19:05 1018 30.06 847 25.01 10.8 51.5 31 -5.5 22
19:10 1018 30.06 847 25.01 11 51.7 29 -6.6 20.2
19:15 1018 30.06 847 25.01 11.1 52 28 -6.5 20.3
19:20 1018 30.06 847 25.01 11.3 52.3 29 -6.1 21
19:25 1018 30.06 847 25.01 11.1 52 29 -6.2 20.8
19:30 1018 30.06 847 25.01 10.9 51.7 32 -5.2 22.6
19:35 1018 30.06 847 25.01 10.4 50.8 32 -5.6 21.9
19:40 1018 30.06 847 25.01 10.4 50.7 32 -5.5 22.1
19:45 1018 30.06 847 25.01 10.1 50.3 35 -4.7 23.5
19:50 1018 30.06 847 25.01 9.7 49.4 36 -4.7 23.5
19:55 1018 30.06 847 25.01 9.6 49.2 32 -6.3 20.7
20:00 1018 30.06 847 25.01 10.6 51.1 29 -6.7 20
20:05 1018 30.06 847 25.01 11.3 52.3 28 -6.4 20.5
20:10 1018 30.06 847 25.01 11.4 52.6 28 -6.5 20.3
20:15 1018 30.06 847 25.01 11.5 52.7 28 -6.3 20.6
20:20 1017 30.03 847 25.01 11.2 52.1 30 -5.8 21.5
20:25 1017 30.03 847 25.01 10.8 51.5 30 -5.9 21.4
20:30 1017 30.03 847 25.01 10.4 50.8 32 -5.4 22.3
20:35 1017 30.03 847 25.01 10.5 50.8 31 -6.1 21
20:40 1017 30.03 847 25.01 10.5 50.9 32 -5.7 21.8
20:45 1017 30.03 847 25.01 10.2 50.3 32 -5.6 22
20:50 1017 30.03 847 25.01 9.8 49.7 34 -5.4 22.3
20:55 1017 30.03 847 25.01 9.7 49.4 33 -5.9 21.4
21:00 1017 30.03 847 25.01 9.8 49.7 32 -6.2 20.8
21:05 1017 30.03 847 25.01 9.9 49.7 32 -5.9 21.3
21:10 1017 30.03 847 25.01 9.7 49.5 33 -5.6 21.9
21:15 1017 30.03 847 25.01 9.7 49.4 33 -5.6 21.9
21:20 1017 30.03 847 25.01 9.5 49.2 33 -6.1 21
21:25 1017 30.03 846 24.98 9.7 49.5 35 -5.1 22.8
21:30 1017 30.03 846 24.98 9.5 49 34 -5.4 22.2
21:35 1017 30.03 846 24.98 9.6 49.3 33 -5.7 21.8
21:40 1017 30.03 846 24.98 9.5 49 34 -5.5 22.2
21:45 1017 30.03 846 24.98 9.3 48.7 34 -5.8 21.6
21:50 1017 30.03 846 24.98 9.4 48.9 34 -5.8 21.5
21:55 1017 30.03 846 24.98 9.8 49.6 33 -5.6 21.8
22:00 1017 30.03 846 24.98 9.8 49.6 31 -6.6 20.1
22:05 1017 30.03 846 24.98 10.3 50.6 32 -5.5 22.1
22:10 1017 30.03 846 24.98 10 49.9 33 -5.6 21.8
22:15 1017 30.03 846 24.98 10.1 50.1 32 -5.9 21.5
22:20 1017 30.03 846 24.98 10.2 50.3 31 -6 21.3
22:25 1017 30.03 846 24.98 10.4 50.6 30 -6.3 20.6
22:30 1017 30.03 846 24.98 11 51.8 28 -6.6 20.1
22:35 1017 30.03 846 24.98 11.7 53 27 -6.9 19.6
22:40 1017 30.03 846 24.98 11.9 53.5 27 -6.3 20.6
22:45 1017 30.03 846 24.98 11.6 52.9 29 -5.7 21.7
22:50 1017 30.03 846 24.98 11 51.8 31 -5.3 22.5
22:55 1017 30.03 846 24.98 11 51.7 29 -6.5 20.4
23:00 1016 30 846 24.98 11.3 52.4 29 -6.1 21.1
23:05 1016 30 846 24.98 11.4 52.5 28 -6.3 20.6
23:10 1017 30.03 846 24.98 11.5 52.7 29 -6.1 21
23:15 1017 30.03 846 24.98 11.4 52.5 29 -6.2 20.8
23:20 1017 30.03 846 24.98 11.1 52 31 -5.5 22.1
23:25 1017 30.03 846 24.98 10.6 51.1 32 -5.6 22
23:30 1017 30.03 846 24.98 10.4 50.8 32 -5.5 22.2
23:35 1017 30.03 846 24.98 10.2 50.3 34 -5 22.9
23:40 1017 30.03 846 24.98 9.7 49.4 35 -4.9 23.2
23:45 1016 30 846 24.98 9.5 49.1 35 -5.1 22.8
23:50 1016 30 846 24.98 10 50 30 -6.7 19.9
23:55 1016 30 846 24.98 11.1 51.9 29 -6.5 20.4
24:00 1016 30 846 24.98 11.4 52.5 29 -6.1 21